createdAt,value
2017-09-05T00:00:56.520Z,66.59
2017-09-05T00:03:23.911Z,66.56
2017-09-05T00:05:51.294Z,68.92
2017-09-05T00:11:24.379Z,69.74
2017-09-05T00:13:52.715Z,70.07
2017-09-05T00:19:28.439Z,68.48
2017-09-05T00:22:05.710Z,68.63
2017-09-05T00:24:33.110Z,68.42
2017-09-05T00:27:00.499Z,67.18
2017-09-05T00:29:27.898Z,66.37
2017-09-05T00:31:55.290Z,65.93
2017-09-05T00:34:22.678Z,66.22
2017-09-05T00:36:50.078Z,66.14
2017-09-05T00:39:17.459Z,64.77
2017-09-05T00:41:44.862Z,65.85
2017-09-05T00:44:12.257Z,67.12
2017-09-05T00:46:39.686Z,66.36
2017-09-05T00:49:07.070Z,65.92
2017-09-05T00:51:34.464Z,65.79
2017-09-05T00:54:01.846Z,65.73
2017-09-05T00:56:29.313Z,64.89
2017-09-05T01:01:30.470Z,64.56
2017-09-05T01:03:57.860Z,64.43
2017-09-05T01:06:25.255Z,64.84
2017-09-05T01:08:52.642Z,66.05
2017-09-05T01:11:20.034Z,67.17
2017-09-05T01:13:47.430Z,68.54
2017-09-05T01:16:14.906Z,69.16
2017-09-05T01:18:42.292Z,67.98
2017-09-05T01:21:09.713Z,68.32
2017-09-05T01:23:37.102Z,68.64
2017-09-05T01:26:04.520Z,67.32
2017-09-05T01:28:31.910Z,67.31
2017-09-05T01:30:59.306Z,68.07
2017-09-05T01:33:26.710Z,67.58
2017-09-05T01:35:54.142Z,66.67
2017-09-05T01:38:21.570Z,66.04
2017-09-05T01:40:48.954Z,66.35
2017-09-05T01:43:16.362Z,68.66
2017-09-05T01:45:43.742Z,68.37
2017-09-05T01:48:11.223Z,67.57
2017-09-05T01:50:38.614Z,71.05
2017-09-05T01:53:06.018Z,70.17
2017-09-05T01:55:33.412Z,69.44
2017-09-05T01:58:00.846Z,68.86
2017-09-05T02:00:28.234Z,67.67
2017-09-05T02:02:55.632Z,67.22
2017-09-05T02:05:23.106Z,67.06
2017-09-05T02:07:50.494Z,67.06
2017-09-05T02:10:17.922Z,67.12
2017-09-05T02:12:45.311Z,66.83
2017-09-05T02:15:12.704Z,67.04
2017-09-05T02:17:40.082Z,66.97
2017-09-05T02:20:07.542Z,66.46
2017-09-05T02:22:34.934Z,70.34
2017-09-05T02:25:02.331Z,69.28
2017-09-05T02:27:29.714Z,67.28
2017-09-05T02:29:57.111Z,66.76
2017-09-05T02:32:24.495Z,66.86
2017-09-05T02:34:51.907Z,66.33
2017-09-05T02:37:19.302Z,66.28
2017-09-05T02:39:46.742Z,66.52
2017-09-05T02:42:14.122Z,66.15
2017-09-05T02:44:41.519Z,65.86
2017-09-05T02:47:08.959Z,67.64
2017-09-05T02:49:36.414Z,67.27
2017-09-05T02:52:03.813Z,67.03
2017-09-05T02:54:31.204Z,66.91
2017-09-05T02:56:58.586Z,66.61
2017-09-05T02:59:25.997Z,66.87
2017-09-05T03:01:53.383Z,66.15
2017-09-05T03:04:20.779Z,68.41
2017-09-05T03:06:48.180Z,67.40
2017-09-05T03:09:15.650Z,66.83
2017-09-05T03:11:43.042Z,66.48
2017-09-05T03:14:10.466Z,67.54
2017-09-05T03:16:37.918Z,68.18
2017-09-05T03:19:05.324Z,68.45
2017-09-05T03:21:32.734Z,67.02
2017-09-05T03:24:00.186Z,67.04
2017-09-05T03:26:27.646Z,67.17
2017-09-05T03:28:55.040Z,66.09
2017-09-05T03:31:22.438Z,66.31
2017-09-05T03:33:49.830Z,67.07
2017-09-05T03:36:17.260Z,68.18
2017-09-05T03:38:44.723Z,68.23
2017-09-05T03:41:12.131Z,69.07
2017-09-05T03:43:39.517Z,68.67
2017-09-05T03:46:06.924Z,68.91
2017-09-05T03:48:34.342Z,69.08
2017-09-05T03:51:01.803Z,68.72
2017-09-05T03:53:29.203Z,68.14
2017-09-05T03:55:56.611Z,68.02
2017-09-05T03:58:24.075Z,68.33
2017-09-05T04:00:51.470Z,69.95
2017-09-05T04:03:18.872Z,70.85
2017-09-05T04:05:46.271Z,70.27
2017-09-05T04:08:13.674Z,70.80
2017-09-05T04:10:41.071Z,70.56
2017-09-05T04:13:08.498Z,70.68
2017-09-05T04:15:35.887Z,70.33
2017-09-05T04:18:03.293Z,69.92
2017-09-05T04:20:30.690Z,69.74
2017-09-05T04:22:58.090Z,70.08
2017-09-05T04:25:25.582Z,70.86
2017-09-05T04:27:52.975Z,70.31
2017-09-05T04:30:20.391Z,70.65
2017-09-05T04:32:47.795Z,69.87
2017-09-05T04:35:15.194Z,68.92
2017-09-05T04:37:42.603Z,69.66
2017-09-05T04:40:09.994Z,70.94
2017-09-05T04:42:37.382Z,69.52
2017-09-05T04:45:04.786Z,69.27
2017-09-05T04:47:32.178Z,69.21
2017-09-05T04:49:59.582Z,68.78
2017-09-05T04:52:26.978Z,68.11
2017-09-05T04:54:54.374Z,69.70
2017-09-05T04:57:21.766Z,69.75
2017-09-05T04:59:49.182Z,69.95
2017-09-05T05:02:16.602Z,69.91
2017-09-05T05:04:44.062Z,68.47
2017-09-05T05:07:11.458Z,67.43
2017-09-05T05:09:38.854Z,66.90
2017-09-05T05:12:06.330Z,66.00
2017-09-05T05:14:33.730Z,65.92
2017-09-05T05:17:01.136Z,65.55
2017-09-05T05:19:28.528Z,65.02
2017-09-05T05:21:55.916Z,64.24
2017-09-05T05:24:23.407Z,63.22
2017-09-05T05:26:50.794Z,62.15
2017-09-05T05:29:18.199Z,61.08
2017-09-05T05:31:45.591Z,60.40
2017-09-05T05:34:12.974Z,58.89
2017-09-05T05:36:40.378Z,57.41
2017-09-05T05:39:07.771Z,55.44
2017-09-05T05:41:35.194Z,54.98
2017-09-05T05:44:02.587Z,54.79
2017-09-05T05:46:30.007Z,53.99
2017-09-05T05:48:57.458Z,53.24
2017-09-05T05:51:24.858Z,53.62
2017-09-05T05:53:52.242Z,52.78
2017-09-05T05:56:19.726Z,51.66
2017-09-05T05:58:47.186Z,51.04
2017-09-05T06:01:14.586Z,49.80
2017-09-05T06:03:41.990Z,49.24
2017-09-05T06:06:09.387Z,48.44
2017-09-05T06:08:36.830Z,48.34
2017-09-05T06:11:04.231Z,47.49
2017-09-05T06:13:31.723Z,46.85
2017-09-05T06:15:59.126Z,45.80
2017-09-05T06:18:26.510Z,44.26
2017-09-05T06:20:53.918Z,40.96
2017-09-05T06:23:21.302Z,39.77
2017-09-05T06:25:48.698Z,37.48
2017-09-05T06:28:16.095Z,35.58
2017-09-05T06:30:43.477Z,33.69
2017-09-05T06:33:10.931Z,32.59
2017-09-05T06:35:38.414Z,31.10
2017-09-05T06:38:05.815Z,30.93
2017-09-05T06:40:33.198Z,30.91
2017-09-05T06:43:00.587Z,30.29
2017-09-05T06:45:27.974Z,29.84
2017-09-05T06:47:55.366Z,29.26
2017-09-05T06:50:22.855Z,28.42
2017-09-05T06:52:50.242Z,27.00
2017-09-05T06:55:17.662Z,26.32
2017-09-05T06:57:45.054Z,26.17
2017-09-05T07:00:12.467Z,24.87
2017-09-05T07:02:39.926Z,24.94
2017-09-05T07:05:07.383Z,25.00
2017-09-05T07:07:34.775Z,24.25
2017-09-05T07:10:02.203Z,24.66
2017-09-05T07:12:29.630Z,25.39
2017-09-05T07:14:57.115Z,25.76
2017-09-05T07:17:24.574Z,28.16
2017-09-05T07:19:51.966Z,30.00
2017-09-05T07:22:19.358Z,30.84
2017-09-05T07:24:46.737Z,29.92
2017-09-05T07:27:14.195Z,29.70
2017-09-05T07:29:41.652Z,28.47
2017-09-05T07:32:09.042Z,28.63
2017-09-05T07:34:36.464Z,29.42
2017-09-05T07:37:03.850Z,31.56
2017-09-05T07:39:31.238Z,30.68
2017-09-05T07:41:58.695Z,29.01
2017-09-05T07:44:26.191Z,29.50
2017-09-05T07:46:53.648Z,29.08
2017-09-05T07:49:21.411Z,27.87
2017-09-05T07:51:48.799Z,28.61
2017-09-05T07:54:16.190Z,28.31
2017-09-05T07:56:43.572Z,28.49
2017-09-05T07:59:10.962Z,27.82
2017-09-05T08:01:38.392Z,26.95
2017-09-05T08:04:05.838Z,26.97
2017-09-05T08:06:33.219Z,26.40
2017-09-05T08:09:00.610Z,27.08
2017-09-05T08:11:28.019Z,27.27
2017-09-05T08:13:55.478Z,27.74
2017-09-05T08:16:22.866Z,27.53
2017-09-05T08:18:50.287Z,29.49
2017-09-05T08:21:17.742Z,28.72
2017-09-05T08:23:45.195Z,30.23
2017-09-05T08:26:12.586Z,30.60
2017-09-05T08:28:40.002Z,30.54
2017-09-05T08:31:07.462Z,29.96
2017-09-05T08:33:34.845Z,31.35
2017-09-05T08:36:02.241Z,30.15
2017-09-05T08:38:29.623Z,32.23
2017-09-05T08:40:57.018Z,33.13
2017-09-05T08:43:24.402Z,33.08
2017-09-05T08:45:51.806Z,33.96
2017-09-05T08:48:19.254Z,33.76
2017-09-05T08:50:46.650Z,36.39
2017-09-05T08:53:14.075Z,35.47
2017-09-05T08:55:41.534Z,34.69
2017-09-05T08:58:08.918Z,36.15
2017-09-05T09:00:36.330Z,35.42
2017-09-05T09:03:03.718Z,36.10
2017-09-05T09:05:31.123Z,36.05
2017-09-05T09:07:58.508Z,35.59
2017-09-05T09:10:25.896Z,34.83
2017-09-05T09:12:53.291Z,33.53
2017-09-05T09:15:20.679Z,33.47
2017-09-05T09:17:48.070Z,33.65
2017-09-05T09:20:15.455Z,31.91
2017-09-05T09:22:42.943Z,34.03
2017-09-05T09:25:10.327Z,35.31
2017-09-05T09:27:37.727Z,38.92
2017-09-05T09:30:05.207Z,37.74
2017-09-05T09:32:32.597Z,38.63
2017-09-05T09:35:00.030Z,38.11
2017-09-05T09:37:27.483Z,36.56
2017-09-05T09:39:54.863Z,35.86
2017-09-05T09:42:22.260Z,36.89
2017-09-05T09:44:49.655Z,37.02
2017-09-05T09:47:17.102Z,37.12
2017-09-05T09:49:44.499Z,38.25
2017-09-05T09:52:11.890Z,36.13
2017-09-05T09:54:39.270Z,36.10
2017-09-05T09:57:06.654Z,36.06
2017-09-05T09:59:34.051Z,37.26
2017-09-05T10:02:01.442Z,36.76
2017-09-05T10:04:28.831Z,39.75
2017-09-05T10:06:56.224Z,40.39
2017-09-05T10:09:23.705Z,42.34
2017-09-05T10:11:51.091Z,41.76
2017-09-05T10:14:18.494Z,41.58
2017-09-05T10:16:45.879Z,41.44
2017-09-05T10:19:13.267Z,42.54
2017-09-05T10:21:40.654Z,42.02
2017-09-05T10:24:08.043Z,41.93
2017-09-05T10:26:35.447Z,40.59
2017-09-05T10:29:02.911Z,40.83
2017-09-05T10:31:30.303Z,41.65
2017-09-05T10:33:57.690Z,43.60
2017-09-05T10:36:25.079Z,43.82
2017-09-05T10:38:52.470Z,42.72
2017-09-05T10:43:54.927Z,44.41
2017-09-05T10:46:22.314Z,44.96
2017-09-05T10:48:49.700Z,44.99
2017-09-05T10:51:17.079Z,45.04
2017-09-05T10:53:44.471Z,45.00
2017-09-05T10:56:11.902Z,45.97
2017-09-05T10:58:39.287Z,45.91
2017-09-05T11:01:06.684Z,45.03
2017-09-05T11:03:34.062Z,44.05
2017-09-05T11:06:01.526Z,44.99
2017-09-05T11:08:28.919Z,44.01
2017-09-05T11:10:56.309Z,45.11
2017-09-05T11:13:23.696Z,42.79
2017-09-05T11:15:51.088Z,42.71
2017-09-05T11:18:18.503Z,43.49
2017-09-05T11:20:45.898Z,43.94
2017-09-05T11:23:13.319Z,45.17
2017-09-05T11:25:40.714Z,46.44
2017-09-05T11:28:08.101Z,45.58
2017-09-05T11:30:35.591Z,45.17
2017-09-05T11:33:02.978Z,44.63
2017-09-05T11:35:30.403Z,44.07
2017-09-05T11:37:57.829Z,45.70
2017-09-05T11:40:25.231Z,44.24
2017-09-05T11:42:52.623Z,43.86
2017-09-05T11:45:20.023Z,42.43
2017-09-05T11:47:47.487Z,44.36
2017-09-05T11:50:14.878Z,45.92
2017-09-05T11:52:42.299Z,44.56
2017-09-05T11:55:09.687Z,42.66
2017-09-05T11:57:37.078Z,44.96
2017-09-05T12:00:04.458Z,43.59
2017-09-05T12:02:31.850Z,43.45
2017-09-05T12:04:59.283Z,43.22
2017-09-05T12:07:26.676Z,43.90
2017-09-05T12:09:54.059Z,42.01
2017-09-05T12:12:21.446Z,42.77
2017-09-05T12:14:48.834Z,41.90
2017-09-05T12:17:16.258Z,44.27
2017-09-05T12:19:43.642Z,44.82
2017-09-05T12:22:11.038Z,43.13
2017-09-05T12:24:38.524Z,43.16
2017-09-05T12:27:05.957Z,42.40
2017-09-05T12:29:33.443Z,45.54
2017-09-05T12:32:00.830Z,43.02
2017-09-05T12:34:28.234Z,43.69
2017-09-05T12:36:55.628Z,42.45
2017-09-05T12:39:23.020Z,44.89
2017-09-05T12:41:50.403Z,43.56
2017-09-05T12:44:17.878Z,44.31
2017-09-05T12:46:45.267Z,44.47
2017-09-05T12:49:12.686Z,42.97
2017-09-05T12:51:40.146Z,43.11
2017-09-05T12:54:07.602Z,41.91
2017-09-05T12:56:34.986Z,43.44
2017-09-05T12:59:02.386Z,43.66
2017-09-05T13:01:29.775Z,43.45
2017-09-05T13:03:57.171Z,41.61
2017-09-05T13:06:24.554Z,41.67
2017-09-05T13:08:51.938Z,40.82
2017-09-05T13:11:19.406Z,42.36
2017-09-05T13:13:46.790Z,41.44
2017-09-05T13:16:14.179Z,43.79
2017-09-05T13:18:41.567Z,44.03
2017-09-05T13:21:08.963Z,43.35
2017-09-05T13:23:36.347Z,42.47
2017-09-05T13:26:03.740Z,42.98
2017-09-05T13:28:31.126Z,42.39
2017-09-05T13:30:58.520Z,42.95
2017-09-05T13:33:25.895Z,43.90
2017-09-05T13:35:53.290Z,43.04
2017-09-05T13:38:20.710Z,42.44
2017-09-05T13:40:48.109Z,43.26
2017-09-05T13:43:15.526Z,43.04
2017-09-05T13:45:42.979Z,43.61
2017-09-05T13:48:10.434Z,42.73
2017-09-05T13:50:37.895Z,45.09
2017-09-05T13:53:05.278Z,44.00
2017-09-05T13:55:32.675Z,44.43
2017-09-05T13:58:00.062Z,45.46
2017-09-05T14:00:27.523Z,44.47
2017-09-05T14:02:54.914Z,46.03
2017-09-05T14:05:22.303Z,46.33
2017-09-05T14:07:49.689Z,46.39
2017-09-05T14:10:17.206Z,46.81
2017-09-05T14:12:44.702Z,45.64
2017-09-05T14:15:12.087Z,46.42
2017-09-05T14:17:39.518Z,46.65
2017-09-05T14:20:06.899Z,47.32
2017-09-05T14:22:34.299Z,46.60
2017-09-05T14:25:01.688Z,46.69
2017-09-05T14:27:29.142Z,46.04
2017-09-05T14:29:56.611Z,46.90
2017-09-05T14:32:24.003Z,47.99
2017-09-05T14:34:51.419Z,47.04
2017-09-05T14:37:18.806Z,47.94
2017-09-05T14:39:46.230Z,47.38
2017-09-05T14:42:13.629Z,49.40
2017-09-05T14:44:41.010Z,48.18
2017-09-05T14:47:08.495Z,49.78
2017-09-05T14:49:35.974Z,49.64
2017-09-05T14:52:03.333Z,49.84
2017-09-05T14:54:30.763Z,50.28
2017-09-05T14:56:58.142Z,50.51
2017-09-05T14:59:25.530Z,48.81
2017-09-05T15:01:52.919Z,49.11
2017-09-05T15:04:20.310Z,49.53
2017-09-05T15:06:47.751Z,50.38
2017-09-05T15:09:15.207Z,49.96
2017-09-05T15:11:42.666Z,49.15
2017-09-05T15:14:10.053Z,50.44
2017-09-05T15:16:37.442Z,50.91
2017-09-05T15:19:04.835Z,51.37
2017-09-05T15:21:32.218Z,51.14
2017-09-05T15:23:59.613Z,51.04
2017-09-05T15:26:27.094Z,50.60
2017-09-05T15:28:54.507Z,51.02
2017-09-05T15:31:21.899Z,52.49
2017-09-05T15:33:49.366Z,53.01
2017-09-05T15:36:16.763Z,51.48
2017-09-05T15:38:44.170Z,52.90
2017-09-05T15:41:11.566Z,53.26
2017-09-05T15:43:38.944Z,52.71
2017-09-05T15:46:06.342Z,51.76
2017-09-05T15:48:33.722Z,51.69
2017-09-05T15:51:01.118Z,52.25
2017-09-05T15:53:28.510Z,53.63
2017-09-05T15:55:55.982Z,53.21
2017-09-05T15:58:24.335Z,52.05
2017-09-05T16:00:51.826Z,51.66
2017-09-05T16:03:19.213Z,52.86
2017-09-05T16:05:46.600Z,52.40
2017-09-05T16:08:13.979Z,52.48
2017-09-05T16:10:41.386Z,52.52
2017-09-05T16:13:08.770Z,52.06
2017-09-05T16:15:36.252Z,52.06
2017-09-05T16:18:03.634Z,51.99
2017-09-05T16:20:31.066Z,53.09
2017-09-05T16:22:58.515Z,53.11
2017-09-05T16:25:25.906Z,53.99
2017-09-05T16:27:53.296Z,54.09
2017-09-05T16:30:20.790Z,54.38
2017-09-05T16:32:48.174Z,54.02
2017-09-05T16:35:15.567Z,53.78
2017-09-05T16:37:43.061Z,54.44
2017-09-05T16:40:10.519Z,54.22
2017-09-05T16:42:37.927Z,54.21
2017-09-05T16:45:05.314Z,55.03
2017-09-05T16:47:32.783Z,54.98
2017-09-05T16:50:00.174Z,54.66
2017-09-05T16:52:27.594Z,55.06
2017-09-05T16:54:55.071Z,55.46
2017-09-05T16:57:22.511Z,55.72
2017-09-05T16:59:49.972Z,55.40
2017-09-05T17:02:17.372Z,54.52
2017-09-05T17:04:44.765Z,55.33
2017-09-05T17:07:12.158Z,55.92
2017-09-05T17:09:39.538Z,56.84
2017-09-05T17:12:06.926Z,57.16
2017-09-05T17:14:34.316Z,57.66
2017-09-05T17:17:01.703Z,58.54
2017-09-05T17:19:29.116Z,59.08
2017-09-05T17:21:56.498Z,58.99
2017-09-05T17:24:23.893Z,58.88
2017-09-05T17:26:51.407Z,58.76
2017-09-05T17:29:18.837Z,58.47
2017-09-05T17:31:46.298Z,59.08
2017-09-05T17:34:13.690Z,58.87
2017-09-05T17:36:41.115Z,58.66
2017-09-05T17:39:08.566Z,58.78
2017-09-05T17:41:35.943Z,59.24
2017-09-05T17:44:03.383Z,59.84
2017-09-05T17:46:30.787Z,60.08
2017-09-05T17:48:58.174Z,59.76
2017-09-05T17:51:25.564Z,59.82
2017-09-05T17:53:52.955Z,60.05
2017-09-05T17:56:20.339Z,60.89
2017-09-05T17:58:47.739Z,61.47
2017-09-05T18:01:15.117Z,61.03
2017-09-05T18:03:42.631Z,61.19
2017-09-05T18:06:10.018Z,61.43
2017-09-05T18:08:37.408Z,62.17
2017-09-05T18:11:04.895Z,62.26
2017-09-05T18:13:32.275Z,62.72
2017-09-05T18:15:59.682Z,62.83
2017-09-05T18:18:27.166Z,62.95
2017-09-05T18:20:54.634Z,62.38
2017-09-05T18:23:22.006Z,62.84
2017-09-05T18:25:49.431Z,62.37
2017-09-05T18:28:16.843Z,62.32
2017-09-05T18:30:44.250Z,62.41
2017-09-05T18:33:11.706Z,62.49
2017-09-05T18:35:39.099Z,63.21
2017-09-05T18:38:06.519Z,63.44
2017-09-05T18:40:33.929Z,62.52
2017-09-05T18:43:01.310Z,63.72
2017-09-05T18:45:28.782Z,64.27
2017-09-05T18:47:56.182Z,63.68
2017-09-05T18:50:23.574Z,63.74
2017-09-05T18:52:50.961Z,63.70
2017-09-05T18:55:18.371Z,63.63
2017-09-05T18:57:45.862Z,63.56
2017-09-05T19:00:13.318Z,62.98
2017-09-05T19:02:40.774Z,62.87
2017-09-05T19:05:08.163Z,63.39
2017-09-05T19:07:35.558Z,63.64
2017-09-05T19:10:03.047Z,63.32
2017-09-05T19:12:30.447Z,63.39
2017-09-05T19:14:57.826Z,63.37
2017-09-05T19:17:26.115Z,64.07
2017-09-05T19:19:53.510Z,64.17
2017-09-05T19:22:20.899Z,65.01
2017-09-05T19:24:48.284Z,64.62
2017-09-05T19:27:15.679Z,64.69
2017-09-05T19:29:43.986Z,63.51
2017-09-05T19:32:11.495Z,62.65
2017-09-05T19:34:38.946Z,61.89
2017-09-05T19:37:06.379Z,63.17
2017-09-05T19:39:33.862Z,62.97
2017-09-05T19:42:01.259Z,63.41
2017-09-05T19:44:28.806Z,62.18
2017-09-05T19:46:56.191Z,63.33
2017-09-05T19:49:23.596Z,63.81
2017-09-05T19:51:50.982Z,64.47
2017-09-05T19:54:18.371Z,65.16
2017-09-05T19:56:45.756Z,64.50
2017-09-05T19:59:13.146Z,65.67
2017-09-05T20:01:40.895Z,64.72
2017-09-05T20:04:08.297Z,64.12
2017-09-05T20:06:35.739Z,65.11
2017-09-05T20:09:03.127Z,64.97
2017-09-05T20:11:30.516Z,65.17
2017-09-05T20:13:57.915Z,65.64
2017-09-05T20:16:25.314Z,64.81
2017-09-05T20:18:52.762Z,65.49
2017-09-05T20:21:20.146Z,65.77
2017-09-05T20:23:47.544Z,66.00
2017-09-05T20:26:14.925Z,66.34
2017-09-05T20:28:42.320Z,66.49
2017-09-05T20:31:09.711Z,67.08
2017-09-05T20:33:37.130Z,68.42
2017-09-05T20:36:04.510Z,67.92
2017-09-05T20:38:31.908Z,67.42
2017-09-05T20:40:59.318Z,67.67
2017-09-05T20:43:26.867Z,67.67
2017-09-05T20:45:54.278Z,68.46
2017-09-05T20:48:21.782Z,68.95
2017-09-05T20:50:49.168Z,68.69
2017-09-05T20:53:16.650Z,69.73
2017-09-05T20:55:44.034Z,69.92
2017-09-05T20:58:11.423Z,69.56
2017-09-05T21:00:38.918Z,69.92
2017-09-05T21:03:06.312Z,71.23
2017-09-05T21:05:33.709Z,71.36
2017-09-05T21:08:01.090Z,70.23
2017-09-05T21:10:28.481Z,70.75
2017-09-05T21:12:55.863Z,70.32
2017-09-05T21:15:23.254Z,69.66
2017-09-05T21:17:50.634Z,69.66
2017-09-05T21:20:18.032Z,70.25
2017-09-05T21:22:45.415Z,70.94
2017-09-05T21:25:12.797Z,70.17
2017-09-05T21:27:40.183Z,70.31
2017-09-05T21:30:07.574Z,70.69
2017-09-05T21:32:35.063Z,70.41
2017-09-05T21:35:02.499Z,70.49
2017-09-05T21:37:29.960Z,71.06
2017-09-05T21:39:57.355Z,71.50
2017-09-05T21:42:24.747Z,72.34
2017-09-05T21:44:52.134Z,72.56
2017-09-05T21:47:19.580Z,72.45
2017-09-05T21:49:46.970Z,72.26
2017-09-05T21:52:14.359Z,72.13
2017-09-05T21:54:41.751Z,72.03
2017-09-05T21:57:09.210Z,72.08
2017-09-05T21:59:36.662Z,71.88
2017-09-05T22:02:04.062Z,71.62
2017-09-05T22:04:31.473Z,70.46
2017-09-05T22:06:58.932Z,70.13
2017-09-05T22:09:26.381Z,69.79
2017-09-05T22:11:53.777Z,70.47
2017-09-05T22:14:26.825Z,70.87
2017-09-05T22:16:54.226Z,69.97
2017-09-05T22:22:19.695Z,70.29
2017-09-05T22:24:52.672Z,69.70
2017-09-05T22:27:25.724Z,70.98
2017-09-05T22:29:53.102Z,69.18
2017-09-05T22:32:20.486Z,69.50
2017-09-05T22:34:47.960Z,68.85
2017-09-05T22:37:15.422Z,67.96
2017-09-05T22:39:42.814Z,67.89
2017-09-05T22:42:10.200Z,67.38
2017-09-05T22:44:37.687Z,67.30
2017-09-05T22:47:05.073Z,66.99
2017-09-05T22:49:32.471Z,67.06
2017-09-05T22:51:59.950Z,66.99
2017-09-05T22:54:27.342Z,66.41
2017-09-05T22:56:54.766Z,67.12
2017-09-05T22:59:22.151Z,67.18
2017-09-05T23:01:49.547Z,67.22
2017-09-05T23:04:17.037Z,67.99
2017-09-05T23:06:44.427Z,68.04
2017-09-05T23:09:11.843Z,67.33
2017-09-05T23:11:39.229Z,67.70
2017-09-05T23:14:06.657Z,67.98
2017-09-05T23:16:34.050Z,67.75
2017-09-05T23:19:01.465Z,66.69
2017-09-05T23:21:28.858Z,66.25
2017-09-05T23:23:56.247Z,66.52
2017-09-05T23:26:23.654Z,67.48
2017-09-05T23:28:51.043Z,67.40
2017-09-05T23:31:18.438Z,68.92
2017-09-05T23:33:45.899Z,68.45
2017-09-05T23:36:13.354Z,68.58
2017-09-05T23:38:40.738Z,67.79
2017-09-05T23:41:08.136Z,67.67
2017-09-05T23:43:35.634Z,67.42
2017-09-05T23:46:03.030Z,67.04
2017-09-05T23:48:30.443Z,67.85
2017-09-05T23:50:57.838Z,68.86
2017-09-05T23:53:25.246Z,69.87
2017-09-05T23:55:52.708Z,70.11
2017-09-05T23:58:20.098Z,68.96
